sensor_id;sensor_type;location;lat;lon;timestamp;P1;durP1;ratioP1;P2;durP2;ratioP2
20621;SDS011;10470;42.670;23.354;2022-10-17T00:01:27;16.83;;;10.87;;
20621;SDS011;10470;42.670;23.354;2022-10-17T00:03:53;17.43;;;9.90;;
20621;SDS011;10470;42.670;23.354;2022-10-17T00:06:18;18.47;;;10.77;;
20621;SDS011;10470;42.670;23.354;2022-10-17T00:08:43;17.30;;;10.67;;
20621;SDS011;10470;42.670;23.354;2022-10-17T00:11:17;19.70;;;10.13;;
20621;SDS011;10470;42.670;23.354;2022-10-17T00:13:45;18.53;;;10.93;;
20621;SDS011;10470;42.670;23.354;2022-10-17T00:16:12;19.43;;;11.47;;
20621;SDS011;10470;42.670;23.354;2022-10-17T00:18:37;16.73;;;10.20;;
20621;SDS011;10470;42.670;23.354;2022-10-17T00:21:03;17.33;;;10.40;;
20621;SDS011;10470;42.670;23.354;2022-10-17T00:23:29;20.07;;;11.17;;
20621;SDS011;10470;42.670;23.354;2022-10-17T00:25:58;18.53;;;10.70;;
20621;SDS011;10470;42.670;23.354;2022-10-17T00:28:26;14.47;;;9.93;;
20621;SDS011;10470;42.670;23.354;2022-10-17T00:30:58;19.83;;;11.77;;
20621;SDS011;10470;42.670;23.354;2022-10-17T00:33:26;14.97;;;10.47;;
20621;SDS011;10470;42.670;23.354;2022-10-17T00:36:05;18.83;;;11.17;;
20621;SDS011;10470;42.670;23.354;2022-10-17T00:38:37;21.13;;;11.00;;
20621;SDS011;10470;42.670;23.354;2022-10-17T00:41:04;16.23;;;10.90;;
20621;SDS011;10470;42.670;23.354;2022-10-17T00:43:47;21.47;;;11.10;;
20621;SDS011;10470;42.670;23.354;2022-10-17T00:46:16;17.90;;;10.87;;
20621;SDS011;10470;42.670;23.354;2022-10-17T00:48:41;18.03;;;10.93;;
20621;SDS011;10470;42.670;23.354;2022-10-17T00:51:08;19.43;;;10.87;;
20621;SDS011;10470;42.670;23.354;2022-10-17T00:53:34;18.83;;;11.20;;
20621;SDS011;10470;42.670;23.354;2022-10-17T00:56:01;19.63;;;9.57;;
20621;SDS011;10470;42.670;23.354;2022-10-17T00:58:26;17.17;;;11.43;;
20621;SDS011;10470;42.670;23.354;2022-10-17T01:00:52;17.20;;;10.40;;
20621;SDS011;10470;42.670;23.354;2022-10-17T01:03:18;16.23;;;10.33;;
20621;SDS011;10470;42.670;23.354;2022-10-17T01:05:43;12.97;;;8.70;;
20621;SDS011;10470;42.670;23.354;2022-10-17T01:08:10;17.37;;;10.20;;
20621;SDS011;10470;42.670;23.354;2022-10-17T01:13:45;18.00;;;10.70;;
20621;SDS011;10470;42.670;23.354;2022-10-17T01:22:10;17.10;;;10.47;;
20621;SDS011;10470;42.670;23.354;2022-10-17T01:33:24;15.33;;;9.50;;
20621;SDS011;10470;42.670;23.354;2022-10-17T01:38:26;16.10;;;9.10;;
20621;SDS011;10470;42.670;23.354;2022-10-17T01:41:02;14.50;;;9.83;;
20621;SDS011;10470;42.670;23.354;2022-10-17T01:43:39;14.13;;;9.37;;
20621;SDS011;10470;42.670;23.354;2022-10-17T01:48:59;14.87;;;9.90;;
20621;SDS011;10470;42.670;23.354;2022-10-17T01:56:36;13.43;;;8.60;;
20621;SDS011;10470;42.670;23.354;2022-10-17T01:59:06;13.13;;;8.30;;
20621;SDS011;10470;42.670;23.354;2022-10-17T02:01:37;13.80;;;8.50;;
20621;SDS011;10470;42.670;23.354;2022-10-17T02:04:06;12.87;;;8.33;;
20621;SDS011;10470;42.670;23.354;2022-10-17T02:06:34;12.73;;;8.57;;
20621;SDS011;10470;42.670;23.354;2022-10-17T02:09:01;11.63;;;8.57;;
20621;SDS011;10470;42.670;23.354;2022-10-17T02:12:02;12.67;;;9.27;;
20621;SDS011;10470;42.670;23.354;2022-10-17T02:14:33;12.50;;;9.23;;
20621;SDS011;10470;42.670;23.354;2022-10-17T02:17:18;14.33;;;9.53;;
20621;SDS011;10470;42.670;23.354;2022-10-17T02:25:37;12.83;;;8.83;;
20621;SDS011;10470;42.670;23.354;2022-10-17T02:28:22;8.93;;;6.93;;
20621;SDS011;10470;42.670;23.354;2022-10-17T02:31:07;13.37;;;7.97;;
20621;SDS011;10470;42.670;23.354;2022-10-17T02:36:11;12.67;;;8.60;;
20621;SDS011;10470;42.670;23.354;2022-10-17T02:38:46;13.67;;;8.57;;
20621;SDS011;10470;42.670;23.354;2022-10-17T02:41:15;12.37;;;8.47;;
20621;SDS011;10470;42.670;23.354;2022-10-17T02:43:44;13.87;;;9.00;;
20621;SDS011;10470;42.670;23.354;2022-10-17T02:46:12;15.80;;;8.80;;
20621;SDS011;10470;42.670;23.354;2022-10-17T02:48:53;14.30;;;9.13;;
20621;SDS011;10470;42.670;23.354;2022-10-17T02:54:25;14.50;;;8.10;;
20621;SDS011;10470;42.670;23.354;2022-10-17T02:57:01;10.57;;;7.70;;
20621;SDS011;10470;42.670;23.354;2022-10-17T02:59:33;11.80;;;8.00;;
20621;SDS011;10470;42.670;23.354;2022-10-17T03:02:02;12.57;;;8.00;;
20621;SDS011;10470;42.670;23.354;2022-10-17T03:04:28;14.50;;;7.83;;
20621;SDS011;10470;42.670;23.354;2022-10-17T03:06:54;10.87;;;7.70;;
20621;SDS011;10470;42.670;23.354;2022-10-17T03:09:20;10.17;;;7.37;;
20621;SDS011;10470;42.670;23.354;2022-10-17T03:11:45;12.93;;;7.33;;
20621;SDS011;10470;42.670;23.354;2022-10-17T03:14:10;13.60;;;8.23;;
20621;SDS011;10470;42.670;23.354;2022-10-17T03:16:36;13.03;;;8.23;;
20621;SDS011;10470;42.670;23.354;2022-10-17T03:19:01;13.27;;;8.20;;
20621;SDS011;10470;42.670;23.354;2022-10-17T03:21:27;14.57;;;9.00;;
20621;SDS011;10470;42.670;23.354;2022-10-17T03:23:52;14.63;;;9.13;;
20621;SDS011;10470;42.670;23.354;2022-10-17T03:26:18;14.13;;;9.50;;
20621;SDS011;10470;42.670;23.354;2022-10-17T03:28:43;14.13;;;9.47;;
20621;SDS011;10470;42.670;23.354;2022-10-17T03:31:10;17.93;;;10.63;;
20621;SDS011;10470;42.670;23.354;2022-10-17T03:33:38;30.03;;;15.93;;
20621;SDS011;10470;42.670;23.354;2022-10-17T03:36:04;44.07;;;21.23;;
20621;SDS011;10470;42.670;23.354;2022-10-17T03:38:34;40.47;;;19.87;;
20621;SDS011;10470;42.670;23.354;2022-10-17T03:41:00;21.07;;;11.17;;
20621;SDS011;10470;42.670;23.354;2022-10-17T03:43:26;22.23;;;11.03;;
20621;SDS011;10470;42.670;23.354;2022-10-17T03:45:52;22.00;;;11.30;;
20621;SDS011;10470;42.670;23.354;2022-10-17T03:48:17;18.03;;;11.37;;
20621;SDS011;10470;42.670;23.354;2022-10-17T03:50:43;25.27;;;14.20;;
20621;SDS011;10470;42.670;23.354;2022-10-17T03:53:08;27.90;;;15.63;;
20621;SDS011;10470;42.670;23.354;2022-10-17T03:55:33;28.33;;;15.37;;
20621;SDS011;10470;42.670;23.354;2022-10-17T03:57:59;26.80;;;15.47;;
20621;SDS011;10470;42.670;23.354;2022-10-17T04:00:24;21.93;;;13.60;;
20621;SDS011;10470;42.670;23.354;2022-10-17T04:02:50;24.50;;;15.50;;
20621;SDS011;10470;42.670;23.354;2022-10-17T04:05:15;22.17;;;14.17;;
20621;SDS011;10470;42.670;23.354;2022-10-17T04:07:41;20.80;;;12.20;;
20621;SDS011;10470;42.670;23.354;2022-10-17T04:10:06;21.07;;;12.53;;
20621;SDS011;10470;42.670;23.354;2022-10-17T04:12:32;21.93;;;12.93;;
20621;SDS011;10470;42.670;23.354;2022-10-17T04:14:58;25.97;;;14.93;;
20621;SDS011;10470;42.670;23.354;2022-10-17T04:17:23;21.53;;;12.83;;
20621;SDS011;10470;42.670;23.354;2022-10-17T04:19:49;18.33;;;11.43;;
20621;SDS011;10470;42.670;23.354;2022-10-17T04:22:14;19.70;;;11.23;;
20621;SDS011;10470;42.670;23.354;2022-10-17T04:24:40;22.77;;;11.93;;
20621;SDS011;10470;42.670;23.354;2022-10-17T04:27:05;20.43;;;12.90;;
20621;SDS011;10470;42.670;23.354;2022-10-17T04:29:31;21.60;;;12.83;;
20621;SDS011;10470;42.670;23.354;2022-10-17T04:31:56;24.20;;;13.47;;
20621;SDS011;10470;42.670;23.354;2022-10-17T04:34:22;67.70;;;26.37;;
20621;SDS011;10470;42.670;23.354;2022-10-17T04:36:49;63.40;;;25.83;;
20621;SDS011;10470;42.670;23.354;2022-10-17T04:39:16;67.03;;;29.53;;
20621;SDS011;10470;42.670;23.354;2022-10-17T04:41:41;41.70;;;17.70;;
20621;SDS011;10470;42.670;23.354;2022-10-17T04:44:08;32.07;;;15.57;;
20621;SDS011;10470;42.670;23.354;2022-10-17T04:46:34;43.37;;;20.87;;
20621;SDS011;10470;42.670;23.354;2022-10-17T04:49:00;47.53;;;21.20;;
20621;SDS011;10470;42.670;23.354;2022-10-17T04:51:26;42.70;;;20.20;;
20621;SDS011;10470;42.670;23.354;2022-10-17T04:53:54;41.13;;;21.27;;
20621;SDS011;10470;42.670;23.354;2022-10-17T04:56:22;38.37;;;19.70;;
20621;SDS011;10470;42.670;23.354;2022-10-17T04:58:48;34.63;;;18.47;;
20621;SDS011;10470;42.670;23.354;2022-10-17T05:01:18;26.77;;;16.30;;
20621;SDS011;10470;42.670;23.354;2022-10-17T05:03:45;35.40;;;19.00;;
20621;SDS011;10470;42.670;23.354;2022-10-17T05:06:15;30.67;;;20.10;;
20621;SDS011;10470;42.670;23.354;2022-10-17T05:08:43;33.83;;;19.37;;
20621;SDS011;10470;42.670;23.354;2022-10-17T05:11:20;26.50;;;16.23;;
20621;SDS011;10470;42.670;23.354;2022-10-17T05:13:55;19.17;;;12.30;;
20621;SDS011;10470;42.670;23.354;2022-10-17T05:16:23;25.00;;;13.80;;
20621;SDS011;10470;42.670;23.354;2022-10-17T05:18:49;23.37;;;12.97;;
20621;SDS011;10470;42.670;23.354;2022-10-17T05:21:16;23.77;;;12.23;;
20621;SDS011;10470;42.670;23.354;2022-10-17T05:23:42;30.60;;;12.90;;
20621;SDS011;10470;42.670;23.354;2022-10-17T05:26:08;25.27;;;13.00;;
20621;SDS011;10470;42.670;23.354;2022-10-17T05:28:33;26.67;;;13.03;;
20621;SDS011;10470;42.670;23.354;2022-10-17T05:31:03;26.93;;;12.83;;
20621;SDS011;10470;42.670;23.354;2022-10-17T05:33:29;27.53;;;13.57;;
20621;SDS011;10470;42.670;23.354;2022-10-17T05:35:56;21.07;;;12.40;;
20621;SDS011;10470;42.670;23.354;2022-10-17T05:38:22;20.53;;;11.20;;
20621;SDS011;10470;42.670;23.354;2022-10-17T05:40:48;21.90;;;11.37;;
20621;SDS011;10470;42.670;23.354;2022-10-17T05:43:13;22.03;;;11.13;;
20621;SDS011;10470;42.670;23.354;2022-10-17T05:45:39;26.77;;;12.00;;
20621;SDS011;10470;42.670;23.354;2022-10-17T05:48:05;28.10;;;10.73;;
20621;SDS011;10470;42.670;23.354;2022-10-17T05:50:33;23.03;;;10.63;;
20621;SDS011;10470;42.670;23.354;2022-10-17T05:52:59;15.37;;;9.47;;
20621;SDS011;10470;42.670;23.354;2022-10-17T05:55:25;23.40;;;10.30;;
20621;SDS011;10470;42.670;23.354;2022-10-17T05:57:50;22.00;;;10.77;;
20621;SDS011;10470;42.670;23.354;2022-10-17T06:00:18;20.70;;;10.00;;
20621;SDS011;10470;42.670;23.354;2022-10-17T06:02:44;19.57;;;9.37;;
20621;SDS011;10470;42.670;23.354;2022-10-17T06:05:13;13.97;;;9.63;;
20621;SDS011;10470;42.670;23.354;2022-10-17T06:07:39;16.60;;;9.37;;
20621;SDS011;10470;42.670;23.354;2022-10-17T06:10:05;19.77;;;10.67;;
20621;SDS011;10470;42.670;23.354;2022-10-17T06:12:31;16.97;;;10.40;;
20621;SDS011;10470;42.670;23.354;2022-10-17T06:14:57;18.67;;;11.33;;
20621;SDS011;10470;42.670;23.354;2022-10-17T06:17:23;21.43;;;12.13;;
20621;SDS011;10470;42.670;23.354;2022-10-17T06:19:48;15.53;;;10.67;;
20621;SDS011;10470;42.670;23.354;2022-10-17T06:22:14;19.77;;;11.53;;
20621;SDS011;10470;42.670;23.354;2022-10-17T06:24:39;18.07;;;11.97;;
20621;SDS011;10470;42.670;23.354;2022-10-17T06:27:05;24.63;;;11.53;;
20621;SDS011;10470;42.670;23.354;2022-10-17T06:29:30;19.33;;;11.87;;
20621;SDS011;10470;42.670;23.354;2022-10-17T06:31:56;18.13;;;11.23;;
20621;SDS011;10470;42.670;23.354;2022-10-17T06:34:21;21.67;;;12.13;;
20621;SDS011;10470;42.670;23.354;2022-10-17T06:36:47;21.87;;;12.00;;
20621;SDS011;10470;42.670;23.354;2022-10-17T06:39:12;18.57;;;12.30;;
20621;SDS011;10470;42.670;23.354;2022-10-17T06:41:38;21.97;;;13.17;;
20621;SDS011;10470;42.670;23.354;2022-10-17T06:44:05;22.90;;;13.07;;
20621;SDS011;10470;42.670;23.354;2022-10-17T06:46:35;25.43;;;16.10;;
20621;SDS011;10470;42.670;23.354;2022-10-17T06:49:01;32.13;;;16.97;;
20621;SDS011;10470;42.670;23.354;2022-10-17T06:51:28;27.80;;;16.90;;
20621;SDS011;10470;42.670;23.354;2022-10-17T06:53:55;27.53;;;15.87;;
20621;SDS011;10470;42.670;23.354;2022-10-17T06:56:22;29.77;;;16.63;;
20621;SDS011;10470;42.670;23.354;2022-10-17T06:58:48;26.33;;;16.43;;
20621;SDS011;10470;42.670;23.354;2022-10-17T07:01:15;28.67;;;17.27;;
20621;SDS011;10470;42.670;23.354;2022-10-17T07:03:41;28.23;;;16.77;;
20621;SDS011;10470;42.670;23.354;2022-10-17T07:06:08;32.30;;;18.13;;
20621;SDS011;10470;42.670;23.354;2022-10-17T07:08:36;24.30;;;15.73;;
20621;SDS011;10470;42.670;23.354;2022-10-17T07:11:12;24.63;;;15.43;;
20621;SDS011;10470;42.670;23.354;2022-10-17T07:13:39;26.67;;;15.20;;
20621;SDS011;10470;42.670;23.354;2022-10-17T07:16:05;29.47;;;16.53;;
20621;SDS011;10470;42.670;23.354;2022-10-17T07:18:31;22.50;;;14.83;;
20621;SDS011;10470;42.670;23.354;2022-10-17T07:20:57;20.53;;;13.50;;
20621;SDS011;10470;42.670;23.354;2022-10-17T07:23:22;20.50;;;13.70;;
20621;SDS011;10470;42.670;23.354;2022-10-17T07:25:48;25.77;;;15.37;;
20621;SDS011;10470;42.670;23.354;2022-10-17T07:28:13;23.90;;;14.60;;
20621;SDS011;10470;42.670;23.354;2022-10-17T07:30:39;27.17;;;15.37;;
20621;SDS011;10470;42.670;23.354;2022-10-17T07:33:05;20.47;;;14.43;;
20621;SDS011;10470;42.670;23.354;2022-10-17T07:35:31;19.17;;;12.07;;
20621;SDS011;10470;42.670;23.354;2022-10-17T07:37:56;22.60;;;14.70;;
20621;SDS011;10470;42.670;23.354;2022-10-17T07:40:22;28.07;;;14.53;;
20621;SDS011;10470;42.670;23.354;2022-10-17T07:42:47;21.60;;;13.90;;
20621;SDS011;10470;42.670;23.354;2022-10-17T07:45:13;21.90;;;14.13;;
20621;SDS011;10470;42.670;23.354;2022-10-17T07:47:39;26.23;;;15.00;;
20621;SDS011;10470;42.670;23.354;2022-10-17T07:50:05;25.40;;;15.20;;
20621;SDS011;10470;42.670;23.354;2022-10-17T07:52:31;29.03;;;16.77;;
20621;SDS011;10470;42.670;23.354;2022-10-17T07:54:57;25.70;;;16.00;;
20621;SDS011;10470;42.670;23.354;2022-10-17T07:57:22;27.87;;;15.53;;
20621;SDS011;10470;42.670;23.354;2022-10-17T07:59:48;26.80;;;15.63;;
20621;SDS011;10470;42.670;23.354;2022-10-17T08:02:24;25.27;;;15.60;;
20621;SDS011;10470;42.670;23.354;2022-10-17T08:04:51;21.10;;;14.50;;
20621;SDS011;10470;42.670;23.354;2022-10-17T08:07:18;23.23;;;14.80;;
20621;SDS011;10470;42.670;23.354;2022-10-17T08:09:44;27.00;;;15.97;;
20621;SDS011;10470;42.670;23.354;2022-10-17T08:12:11;25.97;;;15.57;;
20621;SDS011;10470;42.670;23.354;2022-10-17T08:14:39;24.70;;;14.83;;
20621;SDS011;10470;42.670;23.354;2022-10-17T08:17:05;24.47;;;15.27;;
20621;SDS011;10470;42.670;23.354;2022-10-17T08:19:31;22.27;;;14.10;;
20621;SDS011;10470;42.670;23.354;2022-10-17T08:21:57;21.27;;;13.63;;
20621;SDS011;10470;42.670;23.354;2022-10-17T08:24:23;23.63;;;13.87;;
20621;SDS011;10470;42.670;23.354;2022-10-17T08:26:49;22.27;;;13.17;;
20621;SDS011;10470;42.670;23.354;2022-10-17T08:29:17;18.73;;;12.57;;
20621;SDS011;10470;42.670;23.354;2022-10-17T08:31:43;19.13;;;11.50;;
20621;SDS011;10470;42.670;23.354;2022-10-17T08:34:09;17.63;;;11.23;;
20621;SDS011;10470;42.670;23.354;2022-10-17T08:36:35;15.67;;;11.13;;
20621;SDS011;10470;42.670;23.354;2022-10-17T08:39:00;20.43;;;11.80;;
20621;SDS011;10470;42.670;23.354;2022-10-17T08:47:12;16.40;;;11.70;;
20621;SDS011;10470;42.670;23.354;2022-10-17T08:49:53;17.90;;;11.90;;
20621;SDS011;10470;42.670;23.354;2022-10-17T08:54:59;19.60;;;12.03;;
20621;SDS011;10470;42.670;23.354;2022-10-17T08:57:25;26.37;;;12.73;;
20621;SDS011;10470;42.670;23.354;2022-10-17T08:59:52;17.37;;;12.30;;
20621;SDS011;10470;42.670;23.354;2022-10-17T09:19:08;17.93;;;9.90;;
20621;SDS011;10470;42.670;23.354;2022-10-17T09:24:20;19.57;;;12.10;;
20621;SDS011;10470;42.670;23.354;2022-10-17T09:26:51;16.50;;;11.17;;
20621;SDS011;10470;42.670;23.354;2022-10-17T09:29:22;15.67;;;8.80;;
20621;SDS011;10470;42.670;23.354;2022-10-17T09:32:12;14.13;;;8.67;;
20621;SDS011;10470;42.670;23.354;2022-10-17T09:34:39;17.20;;;9.83;;
20621;SDS011;10470;42.670;23.354;2022-10-17T09:37:05;14.80;;;9.73;;
20621;SDS011;10470;42.670;23.354;2022-10-17T09:39:38;12.57;;;9.73;;
20621;SDS011;10470;42.670;23.354;2022-10-17T09:42:05;11.37;;;7.90;;
20621;SDS011;10470;42.670;23.354;2022-10-17T09:44:34;9.33;;;7.00;;
20621;SDS011;10470;42.670;23.354;2022-10-17T09:49:52;12.60;;;6.10;;
20621;SDS011;10470;42.670;23.354;2022-10-17T09:55:00;9.60;;;5.60;;
20621;SDS011;10470;42.670;23.354;2022-10-17T10:00:20;6.57;;;4.10;;
20621;SDS011;10470;42.670;23.354;2022-10-17T10:02:48;5.10;;;4.07;;
20621;SDS011;10470;42.670;23.354;2022-10-17T10:05:14;6.37;;;4.50;;
20621;SDS011;10470;42.670;23.354;2022-10-17T10:07:42;5.57;;;4.10;;
20621;SDS011;10470;42.670;23.354;2022-10-17T10:10:30;7.83;;;4.67;;
20621;SDS011;10470;42.670;23.354;2022-10-17T10:15:31;4.43;;;3.43;;
20621;SDS011;10470;42.670;23.354;2022-10-17T10:17:58;4.80;;;3.03;;
20621;SDS011;10470;42.670;23.354;2022-10-17T10:23:10;5.83;;;2.80;;
20621;SDS011;10470;42.670;23.354;2022-10-17T10:25:58;4.43;;;3.00;;
20621;SDS011;10470;42.670;23.354;2022-10-17T10:28:28;3.77;;;2.87;;
20621;SDS011;10470;42.670;23.354;2022-10-17T10:30:56;6.53;;;3.20;;
20621;SDS011;10470;42.670;23.354;2022-10-17T10:33:26;5.70;;;2.93;;
20621;SDS011;10470;42.670;23.354;2022-10-17T10:36:03;4.97;;;3.30;;
20621;SDS011;10470;42.670;23.354;2022-10-17T10:38:31;4.70;;;3.23;;
20621;SDS011;10470;42.670;23.354;2022-10-17T10:41:02;3.87;;;3.27;;
20621;SDS011;10470;42.670;23.354;2022-10-17T10:43:33;4.70;;;2.60;;
20621;SDS011;10470;42.670;23.354;2022-10-17T10:46:15;3.50;;;2.63;;
20621;SDS011;10470;42.670;23.354;2022-10-17T10:48:53;3.13;;;2.30;;
20621;SDS011;10470;42.670;23.354;2022-10-17T10:51:34;4.47;;;2.80;;
20621;SDS011;10470;42.670;23.354;2022-10-17T10:54:53;3.70;;;2.20;;
20621;SDS011;10470;42.670;23.354;2022-10-17T10:56:59;6.07;;;3.00;;
20621;SDS011;10470;42.670;23.354;2022-10-17T11:04:51;10.57;;;2.50;;
20621;SDS011;10470;42.670;23.354;2022-10-17T11:07:29;4.43;;;2.63;;
20621;SDS011;10470;42.670;23.354;2022-10-17T11:12:58;2.40;;;2.07;;
20621;SDS011;10470;42.670;23.354;2022-10-17T11:18:34;4.63;;;2.83;;
20621;SDS011;10470;42.670;23.354;2022-10-17T11:21:24;3.50;;;2.37;;
20621;SDS011;10470;42.670;23.354;2022-10-17T11:26:52;2.70;;;2.50;;
20621;SDS011;10470;42.670;23.354;2022-10-17T11:29:25;2.93;;;2.63;;
20621;SDS011;10470;42.670;23.354;2022-10-17T11:31:56;3.30;;;2.53;;
20621;SDS011;10470;42.670;23.354;2022-10-17T11:34:26;3.67;;;2.63;;
20621;SDS011;10470;42.670;23.354;2022-10-17T11:37:01;6.07;;;2.70;;
20621;SDS011;10470;42.670;23.354;2022-10-17T11:42:20;3.13;;;2.70;;
20621;SDS011;10470;42.670;23.354;2022-10-17T11:44:51;5.13;;;3.10;;
20621;SDS011;10470;42.670;23.354;2022-10-17T11:49:54;3.37;;;2.83;;
20621;SDS011;10470;42.670;23.354;2022-10-17T11:55:35;3.30;;;2.70;;
20621;SDS011;10470;42.670;23.354;2022-10-17T12:01:16;3.63;;;2.90;;
20621;SDS011;10470;42.670;23.354;2022-10-17T12:09:31;3.07;;;2.53;;
20621;SDS011;10470;42.670;23.354;2022-10-17T12:12:32;2.77;;;2.47;;
20621;SDS011;10470;42.670;23.354;2022-10-17T12:15:46;4.20;;;2.53;;
20621;SDS011;10470;42.670;23.354;2022-10-17T12:18:14;2.57;;;2.37;;
20621;SDS011;10470;42.670;23.354;2022-10-17T12:20:40;3.13;;;2.80;;
20621;SDS011;10470;42.670;23.354;2022-10-17T12:25:47;4.10;;;2.80;;
20621;SDS011;10470;42.670;23.354;2022-10-17T12:46:41;2.93;;;2.27;;
20621;SDS011;10470;42.670;23.354;2022-10-17T12:49:21;3.50;;;3.00;;
20621;SDS011;10470;42.670;23.354;2022-10-17T12:52:24;2.63;;;2.30;;
20621;SDS011;10470;42.670;23.354;2022-10-17T12:59:57;2.33;;;2.13;;
20621;SDS011;10470;42.670;23.354;2022-10-17T13:02:26;3.30;;;2.77;;
20621;SDS011;10470;42.670;23.354;2022-10-17T13:05:06;2.50;;;2.17;;
20621;SDS011;10470;42.670;23.354;2022-10-17T13:07:39;3.53;;;2.50;;
20621;SDS011;10470;42.670;23.354;2022-10-17T13:10:07;2.90;;;2.70;;
20621;SDS011;10470;42.670;23.354;2022-10-17T13:12:46;2.50;;;2.30;;
20621;SDS011;10470;42.670;23.354;2022-10-17T13:15:14;4.50;;;2.33;;
20621;SDS011;10470;42.670;23.354;2022-10-17T13:17:43;2.73;;;2.13;;
20621;SDS011;10470;42.670;23.354;2022-10-17T13:20:25;3.87;;;2.00;;
20621;SDS011;10470;42.670;23.354;2022-10-17T13:22:53;3.67;;;2.33;;
20621;SDS011;10470;42.670;23.354;2022-10-17T13:25:20;2.13;;;2.00;;
20621;SDS011;10470;42.670;23.354;2022-10-17T13:27:47;3.70;;;2.30;;
20621;SDS011;10470;42.670;23.354;2022-10-17T13:32:45;3.83;;;2.20;;
20621;SDS011;10470;42.670;23.354;2022-10-17T13:35:12;2.60;;;2.00;;
20621;SDS011;10470;42.670;23.354;2022-10-17T13:37:41;3.13;;;1.87;;
20621;SDS011;10470;42.670;23.354;2022-10-17T13:40:19;1.83;;;1.70;;
20621;SDS011;10470;42.670;23.354;2022-10-17T13:42:48;1.87;;;1.77;;
20621;SDS011;10470;42.670;23.354;2022-10-17T13:47:51;2.73;;;1.70;;
20621;SDS011;10470;42.670;23.354;2022-10-17T13:50:39;2.10;;;1.80;;
20621;SDS011;10470;42.670;23.354;2022-10-17T13:53:24;3.60;;;2.30;;
20621;SDS011;10470;42.670;23.354;2022-10-17T13:58:42;4.13;;;2.77;;
20621;SDS011;10470;42.670;23.354;2022-10-17T14:01:10;3.20;;;2.90;;
20621;SDS011;10470;42.670;23.354;2022-10-17T14:03:39;2.70;;;2.40;;
20621;SDS011;10470;42.670;23.354;2022-10-17T14:09:06;3.63;;;2.63;;
20621;SDS011;10470;42.670;23.354;2022-10-17T14:11:41;3.63;;;2.87;;
20621;SDS011;10470;42.670;23.354;2022-10-17T14:14:16;4.27;;;2.70;;
20621;SDS011;10470;42.670;23.354;2022-10-17T14:16:44;5.80;;;2.83;;
20621;SDS011;10470;42.670;23.354;2022-10-17T14:19:16;3.90;;;3.50;;
20621;SDS011;10470;42.670;23.354;2022-10-17T14:21:46;3.03;;;2.73;;
20621;SDS011;10470;42.670;23.354;2022-10-17T14:24:14;3.50;;;3.00;;
20621;SDS011;10470;42.670;23.354;2022-10-17T14:26:54;3.83;;;2.77;;
20621;SDS011;10470;42.670;23.354;2022-10-17T14:29:31;8.03;;;3.00;;
20621;SDS011;10470;42.670;23.354;2022-10-17T14:32:15;3.10;;;2.80;;
20621;SDS011;10470;42.670;23.354;2022-10-17T14:34:42;4.93;;;3.90;;
20621;SDS011;10470;42.670;23.354;2022-10-17T14:39:51;3.93;;;3.53;;
20621;SDS011;10470;42.670;23.354;2022-10-17T14:42:19;6.30;;;3.77;;
20621;SDS011;10470;42.670;23.354;2022-10-17T14:44:50;5.23;;;3.53;;
20621;SDS011;10470;42.670;23.354;2022-10-17T14:47:23;4.90;;;3.53;;
20621;SDS011;10470;42.670;23.354;2022-10-17T14:50:01;4.40;;;3.27;;
20621;SDS011;10470;42.670;23.354;2022-10-17T14:52:32;4.30;;;3.90;;
20621;SDS011;10470;42.670;23.354;2022-10-17T14:54:59;3.73;;;3.40;;
20621;SDS011;10470;42.670;23.354;2022-10-17T14:57:44;7.90;;;3.90;;
20621;SDS011;10470;42.670;23.354;2022-10-17T15:00:14;4.10;;;3.70;;
20621;SDS011;10470;42.670;23.354;2022-10-17T15:02:42;5.17;;;3.50;;
20621;SDS011;10470;42.670;23.354;2022-10-17T15:05:08;6.50;;;3.97;;
20621;SDS011;10470;42.670;23.354;2022-10-17T15:07:34;5.60;;;3.60;;
20621;SDS011;10470;42.670;23.354;2022-10-17T15:09:59;6.10;;;3.77;;
20621;SDS011;10470;42.670;23.354;2022-10-17T15:12:25;7.33;;;3.90;;
20621;SDS011;10470;42.670;23.354;2022-10-17T15:14:50;6.67;;;3.90;;
20621;SDS011;10470;42.670;23.354;2022-10-17T15:17:18;4.20;;;3.67;;
20621;SDS011;10470;42.670;23.354;2022-10-17T15:19:46;6.70;;;3.50;;
20621;SDS011;10470;42.670;23.354;2022-10-17T15:22:12;5.13;;;3.70;;
20621;SDS011;10470;42.670;23.354;2022-10-17T15:24:40;5.50;;;3.60;;
20621;SDS011;10470;42.670;23.354;2022-10-17T15:27:08;6.63;;;4.20;;
20621;SDS011;10470;42.670;23.354;2022-10-17T15:29:39;8.73;;;4.00;;
20621;SDS011;10470;42.670;23.354;2022-10-17T15:32:05;6.33;;;4.53;;
20621;SDS011;10470;42.670;23.354;2022-10-17T15:34:30;8.50;;;4.43;;
20621;SDS011;10470;42.670;23.354;2022-10-17T15:36:56;5.90;;;3.90;;
20621;SDS011;10470;42.670;23.354;2022-10-17T15:39:22;8.50;;;4.70;;
20621;SDS011;10470;42.670;23.354;2022-10-17T15:41:48;6.70;;;4.47;;
20621;SDS011;10470;42.670;23.354;2022-10-17T15:44:14;12.00;;;4.77;;
20621;SDS011;10470;42.670;23.354;2022-10-17T15:46:39;9.10;;;4.57;;
20621;SDS011;10470;42.670;23.354;2022-10-17T15:49:08;6.37;;;4.47;;
20621;SDS011;10470;42.670;23.354;2022-10-17T15:51:37;7.03;;;4.50;;
20621;SDS011;10470;42.670;23.354;2022-10-17T15:54:03;7.13;;;4.53;;
20621;SDS011;10470;42.670;23.354;2022-10-17T15:56:33;8.70;;;4.33;;
20621;SDS011;10470;42.670;23.354;2022-10-17T15:59:03;6.80;;;5.60;;
20621;SDS011;10470;42.670;23.354;2022-10-17T16:01:31;8.50;;;5.90;;
20621;SDS011;10470;42.670;23.354;2022-10-17T16:03:57;8.30;;;6.10;;
20621;SDS011;10470;42.670;23.354;2022-10-17T16:06:23;8.03;;;5.43;;
20621;SDS011;10470;42.670;23.354;2022-10-17T16:08:49;9.40;;;6.37;;
20621;SDS011;10470;42.670;23.354;2022-10-17T16:11:16;12.43;;;5.57;;
20621;SDS011;10470;42.670;23.354;2022-10-17T16:13:52;10.90;;;6.37;;
20621;SDS011;10470;42.670;23.354;2022-10-17T16:16:19;12.30;;;6.50;;
20621;SDS011;10470;42.670;23.354;2022-10-17T16:18:46;17.93;;;6.77;;
20621;SDS011;10470;42.670;23.354;2022-10-17T16:21:13;12.00;;;7.90;;
20621;SDS011;10470;42.670;23.354;2022-10-17T16:23:40;14.13;;;9.10;;
20621;SDS011;10470;42.670;23.354;2022-10-17T16:26:06;13.80;;;9.30;;
20621;SDS011;10470;42.670;23.354;2022-10-17T16:28:32;19.17;;;9.30;;
20621;SDS011;10470;42.670;23.354;2022-10-17T16:30:58;15.40;;;8.07;;
20621;SDS011;10470;42.670;23.354;2022-10-17T16:33:24;14.93;;;7.60;;
20621;SDS011;10470;42.670;23.354;2022-10-17T16:35:49;12.83;;;7.33;;
20621;SDS011;10470;42.670;23.354;2022-10-17T16:38:15;16.00;;;7.97;;
20621;SDS011;10470;42.670;23.354;2022-10-17T16:40:41;11.70;;;7.00;;
20621;SDS011;10470;42.670;23.354;2022-10-17T16:43:09;16.47;;;8.10;;
20621;SDS011;10470;42.670;23.354;2022-10-17T16:45:36;18.43;;;7.83;;
20621;SDS011;10470;42.670;23.354;2022-10-17T16:48:02;16.50;;;8.37;;
20621;SDS011;10470;42.670;23.354;2022-10-17T16:50:27;13.07;;;7.30;;
20621;SDS011;10470;42.670;23.354;2022-10-17T16:52:55;17.87;;;7.60;;
20621;SDS011;10470;42.670;23.354;2022-10-17T16:55:20;13.37;;;7.50;;
20621;SDS011;10470;42.670;23.354;2022-10-17T16:57:46;14.80;;;7.00;;
20621;SDS011;10470;42.670;23.354;2022-10-17T17:00:13;18.87;;;7.77;;
20621;SDS011;10470;42.670;23.354;2022-10-17T17:02:39;13.83;;;7.00;;
20621;SDS011;10470;42.670;23.354;2022-10-17T17:05:04;14.00;;;7.23;;